createdAt,value
2024-02-14T00:00:01.950Z,46
2024-02-14T00:01:01.601Z,45
2024-02-14T00:02:01.705Z,45
2024-02-14T00:03:01.899Z,46
2024-02-14T00:04:01.413Z,46
2024-02-14T00:05:01.471Z,45
2024-02-14T00:06:01.547Z,45
2024-02-14T00:07:01.682Z,45
2024-02-14T00:08:01.756Z,45
2024-02-14T00:09:01.878Z,45
2024-02-14T00:10:01.354Z,45
2024-02-14T00:11:01.685Z,45
2024-02-14T00:12:00.971Z,45
2024-02-14T00:13:01.123Z,45
2024-02-14T00:14:01.205Z,45
2024-02-14T00:15:01.301Z,45
2024-02-14T00:16:01.388Z,45
2024-02-14T00:17:01.396Z,46
2024-02-14T00:18:01.678Z,46
2024-02-14T00:19:01.062Z,46
2024-02-14T00:20:01.768Z,46
2024-02-14T00:21:01.904Z,46
2024-02-14T00:22:01.405Z,46
2024-02-14T00:23:01.457Z,46
2024-02-14T00:24:01.586Z,46
2024-02-14T00:25:01.703Z,47
2024-02-14T00:26:01.757Z,46
2024-02-14T00:27:01.016Z,46
2024-02-14T00:28:01.416Z,46
2024-02-14T00:29:01.637Z,46
2024-02-14T00:30:01.741Z,46
2024-02-14T00:31:01.794Z,46
2024-02-14T00:32:00.838Z,46
2024-02-14T00:33:01.115Z,46
2024-02-14T00:34:01.449Z,47
2024-02-14T00:35:01.965Z,47
2024-02-14T00:36:01.339Z,47
2024-02-14T00:37:01.579Z,47
2024-02-14T00:38:01.646Z,47
2024-02-14T00:39:01.816Z,46
2024-02-14T00:40:01.001Z,46
2024-02-14T00:41:01.015Z,46
2024-02-14T00:42:01.291Z,46
2024-02-14T00:43:01.387Z,46
2024-02-14T00:44:01.599Z,46
2024-02-14T00:45:01.846Z,46
2024-02-14T00:46:01.044Z,46
2024-02-14T00:47:01.233Z,47
2024-02-14T00:48:01.411Z,46
2024-02-14T00:49:01.903Z,47
2024-02-14T00:50:01.090Z,48
2024-02-14T00:51:01.190Z,48
2024-02-14T00:52:01.271Z,48
2024-02-14T00:53:01.670Z,48
2024-02-14T00:54:01.851Z,48
2024-02-14T00:55:01.327Z,48
2024-02-14T00:56:01.369Z,48
2024-02-14T00:57:01.402Z,48
2024-02-14T00:58:01.573Z,47
2024-02-14T00:59:01.617Z,47
2024-02-14T01:00:01.931Z,47
2024-02-14T01:01:01.515Z,47
2024-02-14T01:02:01.641Z,47
2024-02-14T01:03:01.865Z,47
2024-02-14T01:04:01.290Z,47
2024-02-14T01:05:01.356Z,48
2024-02-14T01:06:01.607Z,48
2024-02-14T01:07:01.700Z,48
2024-02-14T01:08:01.951Z,48
2024-02-14T01:09:01.576Z,48
2024-02-14T01:10:01.347Z,49
2024-02-14T01:11:01.382Z,49
2024-02-14T01:12:01.776Z,49
2024-02-14T01:13:01.843Z,48
2024-02-14T01:14:01.310Z,49
2024-02-14T01:15:01.424Z,49
2024-02-14T01:16:01.530Z,48
2024-02-14T01:17:01.590Z,48
2024-02-14T01:18:01.156Z,47
2024-02-14T01:19:01.893Z,48
2024-02-14T01:20:01.383Z,48
2024-02-14T01:21:01.569Z,48
2024-02-14T01:22:01.656Z,48
2024-02-14T01:23:01.696Z,47
2024-02-14T01:24:01.733Z,47
2024-02-14T01:25:01.398Z,48
2024-02-14T01:26:01.403Z,48
2024-02-14T01:27:01.458Z,49
2024-02-14T01:28:01.540Z,49
2024-02-14T01:29:01.590Z,48
2024-02-14T01:30:01.702Z,48
2024-02-14T01:31:01.989Z,48
2024-02-14T01:32:01.254Z,47
2024-02-14T01:33:02.481Z,47
2024-02-14T01:34:01.342Z,47
2024-02-14T01:35:01.723Z,47
2024-02-14T01:36:01.853Z,47
2024-02-14T01:37:01.217Z,47
2024-02-14T01:38:01.434Z,46
2024-02-14T01:39:01.519Z,46
2024-02-14T01:40:01.608Z,46
2024-02-14T01:41:01.812Z,46
2024-02-14T01:42:01.538Z,46
2024-02-14T01:43:01.632Z,46
2024-02-14T01:44:01.684Z,46
2024-02-14T01:45:01.769Z,46
2024-02-14T01:46:01.803Z,46
2024-02-14T01:47:01.204Z,46
2024-02-14T01:48:01.366Z,46
2024-02-14T01:49:01.677Z,46
2024-02-14T01:50:01.149Z,46
2024-02-14T01:51:01.311Z,46
2024-02-14T01:52:01.376Z,46
2024-02-14T01:53:01.445Z,46
2024-02-14T01:54:01.529Z,46
2024-02-14T01:55:01.676Z,45
2024-02-14T01:56:01.715Z,45
2024-02-14T01:57:01.129Z,45
2024-02-14T01:58:01.405Z,45
2024-02-14T01:59:01.674Z,45
2024-02-14T02:00:01.310Z,45
2024-02-14T02:01:01.491Z,45
2024-02-14T02:02:01.757Z,46
2024-02-14T02:03:01.499Z,46
2024-02-14T02:04:01.701Z,46
2024-02-14T02:05:01.772Z,46
2024-02-14T02:06:01.553Z,46
2024-02-14T02:07:01.125Z,46
2024-02-14T02:08:01.210Z,46
2024-02-14T02:09:01.434Z,46
2024-02-14T02:10:01.670Z,46
2024-02-14T02:11:01.328Z,46
2024-02-14T02:12:01.560Z,47
2024-02-14T02:13:01.647Z,47
2024-02-14T02:14:01.841Z,47
2024-02-14T02:15:01.171Z,47
2024-02-14T02:16:01.248Z,47
2024-02-14T02:17:01.331Z,46
2024-02-14T02:18:01.639Z,47
2024-02-14T02:19:01.275Z,47
2024-02-14T02:20:03.158Z,47
2024-02-14T02:21:01.558Z,47
2024-02-14T02:22:01.614Z,47
2024-02-14T02:23:01.639Z,47
2024-02-14T02:24:01.766Z,47
2024-02-14T02:25:01.167Z,47
2024-02-14T02:26:01.225Z,47
2024-02-14T02:27:01.408Z,47
2024-02-14T02:28:01.456Z,46
2024-02-14T02:29:01.571Z,45
2024-02-14T02:30:01.715Z,45
2024-02-14T02:31:01.095Z,47
2024-02-14T02:32:01.122Z,48
2024-02-14T02:33:01.265Z,48
2024-02-14T02:34:01.574Z,47
2024-02-14T02:35:01.150Z,47
2024-02-14T02:36:01.258Z,47
2024-02-14T02:37:01.315Z,49
2024-02-14T02:38:01.457Z,50
2024-02-14T02:39:01.574Z,49
2024-02-14T02:40:01.701Z,50
2024-02-14T02:41:01.190Z,50
2024-02-14T02:42:01.310Z,50
2024-02-14T02:43:01.495Z,47
2024-02-14T02:44:01.612Z,47
2024-02-14T02:45:01.787Z,47
2024-02-14T02:46:01.074Z,48
2024-02-14T02:47:01.121Z,50
2024-02-14T02:48:01.719Z,50
2024-02-14T02:49:01.301Z,50
2024-02-14T02:50:01.482Z,50
2024-02-14T02:51:01.599Z,49
2024-02-14T02:52:01.087Z,49
2024-02-14T02:53:01.112Z,48
2024-02-14T02:54:01.303Z,48
2024-02-14T02:55:01.449Z,49
2024-02-14T02:56:01.512Z,50
2024-02-14T02:57:01.732Z,49
2024-02-14T02:58:01.082Z,48
2024-02-14T02:59:01.114Z,49
2024-02-14T03:00:01.294Z,51
2024-02-14T03:01:01.480Z,50
2024-02-14T03:02:01.596Z,49
2024-02-14T03:03:01.750Z,49
2024-02-14T03:04:01.160Z,49
2024-02-14T03:05:01.438Z,49
2024-02-14T03:06:01.635Z,50
2024-02-14T03:07:01.104Z,49
2024-02-14T03:08:01.175Z,49
2024-02-14T03:09:01.323Z,50
2024-02-14T03:10:01.442Z,50
2024-02-14T03:11:01.684Z,50
2024-02-14T03:12:01.772Z,51
2024-02-14T03:13:01.147Z,51
2024-02-14T03:15:01.299Z,51
2024-02-14T03:16:01.341Z,51
2024-02-14T03:17:01.423Z,51
2024-02-14T03:18:01.517Z,51
2024-02-14T03:19:01.070Z,52
2024-02-14T03:20:03.767Z,53
2024-02-14T03:21:01.300Z,54
2024-02-14T03:22:01.420Z,54
2024-02-14T03:23:01.003Z,55
2024-02-14T03:24:01.136Z,54
2024-02-14T03:25:01.500Z,54
2024-02-14T03:26:01.521Z,54
2024-02-14T03:27:01.081Z,53
2024-02-14T03:29:01.453Z,53
2024-02-14T03:30:01.570Z,53
2024-02-14T03:31:01.176Z,53
2024-02-14T03:32:01.226Z,53
2024-02-14T03:33:01.433Z,54
2024-02-14T03:34:01.306Z,54
2024-02-14T03:35:01.359Z,55
2024-02-14T03:39:01.050Z,52
2024-02-14T03:40:01.184Z,53
2024-02-14T03:41:01.248Z,54
2024-02-14T03:42:01.279Z,53
2024-02-14T03:43:01.402Z,53
2024-02-14T03:44:01.569Z,54
2024-02-14T03:45:01.066Z,54
2024-02-14T03:46:01.174Z,54
2024-02-14T03:47:01.231Z,54
2024-02-14T03:48:01.439Z,53
2024-02-14T03:49:01.793Z,54
2024-02-14T03:50:01.002Z,54
2024-02-14T03:51:01.083Z,55
2024-02-14T03:52:01.223Z,55
2024-02-14T03:53:01.292Z,55
2024-02-14T03:54:01.500Z,55
2024-02-14T03:55:01.548Z,56
2024-02-14T03:56:01.651Z,56
2024-02-14T03:57:01.020Z,55
2024-02-14T03:58:01.117Z,55
2024-02-14T03:59:01.181Z,55
2024-02-14T04:00:01.257Z,55
2024-02-14T04:01:01.401Z,56
2024-02-14T04:02:01.511Z,56
2024-02-14T04:03:01.009Z,55
2024-02-14T04:04:01.217Z,55
2024-02-14T04:05:01.332Z,55
2024-02-14T04:06:01.518Z,54
2024-02-14T04:07:00.989Z,54
2024-02-14T04:08:01.114Z,53
2024-02-14T04:15:01.902Z,53
2024-02-14T04:16:00.975Z,62
2024-02-14T04:17:01.816Z,62
2024-02-14T04:18:03.160Z,60
2024-02-14T04:19:01.889Z,58
2024-02-14T04:20:01.656Z,56
2024-02-14T04:21:01.588Z,56
2024-02-14T04:23:01.451Z,56
2024-02-14T04:24:01.782Z,54
2024-02-14T04:25:00.892Z,54
2024-02-14T04:26:00.974Z,55
2024-02-14T04:27:01.397Z,55
2024-02-14T04:28:01.123Z,55
2024-02-14T04:29:01.209Z,55
2024-02-14T04:30:01.652Z,55
2024-02-14T04:31:01.834Z,55
2024-02-14T04:32:00.991Z,55
2024-02-14T04:33:01.604Z,56
2024-02-14T04:34:01.932Z,56
2024-02-14T04:35:01.725Z,56
2024-02-14T04:36:01.836Z,56
2024-02-14T04:37:00.915Z,56
2024-02-14T04:38:01.451Z,56
2024-02-14T04:39:01.610Z,56
2024-02-14T04:40:01.729Z,56
2024-02-14T04:41:00.799Z,56
2024-02-14T04:42:02.626Z,56
2024-02-14T04:43:01.518Z,56
2024-02-14T04:44:00.831Z,56
2024-02-14T04:45:01.208Z,56
2024-02-14T04:46:01.365Z,56
2024-02-14T04:47:01.602Z,56
2024-02-14T04:48:01.315Z,56
2024-02-14T04:49:01.729Z,56
2024-02-14T04:50:00.893Z,56
2024-02-14T04:51:02.819Z,56
2024-02-14T04:52:01.708Z,56
2024-02-14T04:53:01.490Z,56
2024-02-14T04:54:01.828Z,56
2024-02-14T04:55:01.754Z,56
2024-02-14T04:56:00.983Z,56
2024-02-14T04:57:03.514Z,56
2024-02-14T04:58:00.865Z,56
2024-02-14T04:59:00.876Z,56
2024-02-14T05:00:00.987Z,56
2024-02-14T05:01:01.219Z,56
2024-02-14T05:02:01.342Z,56
2024-02-14T05:03:01.521Z,56
2024-02-14T05:04:01.666Z,56
2024-02-14T05:05:00.874Z,56
2024-02-14T05:06:01.169Z,57
2024-02-14T05:07:01.469Z,58
2024-02-14T05:08:01.563Z,57
2024-02-14T05:09:01.197Z,56
2024-02-14T05:10:01.284Z,56
2024-02-14T05:11:01.428Z,56
2024-02-14T05:12:01.520Z,56
2024-02-14T05:13:01.594Z,56
2024-02-14T05:14:01.628Z,56
2024-02-14T05:15:01.796Z,56
2024-02-14T05:16:00.871Z,56
2024-02-14T05:17:00.909Z,57
2024-02-14T05:18:01.424Z,57
2024-02-14T05:19:01.740Z,57
2024-02-14T05:20:01.067Z,57
2024-02-14T05:21:01.247Z,57
2024-02-14T05:22:01.312Z,57
2024-02-14T05:23:01.417Z,57
2024-02-14T05:24:01.592Z,57
2024-02-14T05:25:01.689Z,57
2024-02-14T05:26:00.808Z,57
2024-02-14T05:27:01.246Z,57
2024-02-14T05:28:01.324Z,57
2024-02-14T05:29:01.372Z,57
2024-02-14T05:30:01.439Z,57
2024-02-14T05:31:01.604Z,61
2024-02-14T05:32:00.822Z,59
2024-02-14T05:33:01.474Z,22
2024-02-14T05:34:01.670Z,56
2024-02-14T05:35:01.963Z,55
2024-02-14T05:36:01.230Z,56
2024-02-14T05:37:01.248Z,56
2024-02-14T05:38:01.246Z,56
2024-02-14T05:40:01.215Z,55
2024-02-14T05:41:01.262Z,56
2024-02-14T05:42:01.081Z,56
2024-02-14T05:43:01.275Z,56
2024-02-14T05:44:01.345Z,56
2024-02-14T05:45:01.508Z,56
2024-02-14T05:46:01.660Z,57
2024-02-14T05:47:01.684Z,57
2024-02-14T05:48:01.884Z,56
2024-02-14T05:49:01.441Z,56
2024-02-14T05:50:01.655Z,56
2024-02-14T05:51:00.960Z,57
2024-02-14T05:52:01.031Z,56
2024-02-14T05:53:01.082Z,56
2024-02-14T05:54:01.407Z,56
2024-02-14T05:55:01.015Z,56
2024-02-14T05:56:01.292Z,56
2024-02-14T05:57:01.384Z,56
2024-02-14T05:58:01.837Z,56
2024-02-14T05:59:00.857Z,56
2024-02-14T06:00:03.080Z,56
2024-02-14T06:01:01.528Z,56
2024-02-14T06:02:01.714Z,56
2024-02-14T06:03:01.749Z,56
2024-02-14T06:04:01.227Z,56
2024-02-14T06:05:01.002Z,56
2024-02-14T06:06:01.178Z,56
2024-02-14T06:07:00.970Z,56
2024-02-14T06:08:01.151Z,56
2024-02-14T06:09:01.266Z,56
2024-02-14T06:10:01.332Z,56
2024-02-14T06:11:01.452Z,56
2024-02-14T06:12:00.955Z,56
2024-02-14T06:13:01.084Z,56
2024-02-14T06:14:01.238Z,56
2024-02-14T06:15:01.329Z,56
2024-02-14T06:16:01.481Z,56
2024-02-14T06:17:01.498Z,56
2024-02-14T06:18:01.686Z,56
2024-02-14T06:19:01.938Z,55
2024-02-14T06:20:01.141Z,55
2024-02-14T06:21:01.339Z,55
2024-02-14T06:22:01.492Z,55
2024-02-14T06:23:05.449Z,56
2024-02-14T06:24:01.221Z,55
2024-02-14T06:25:01.370Z,55
2024-02-14T06:26:01.623Z,56
2024-02-14T06:27:00.919Z,56
2024-02-14T06:28:01.078Z,57
2024-02-14T06:29:01.404Z,58
2024-02-14T06:30:01.517Z,57
2024-02-14T06:31:01.569Z,57
2024-02-14T06:32:01.631Z,56
2024-02-14T06:33:02.364Z,56
2024-02-14T06:34:01.244Z,56
2024-02-14T06:35:01.918Z,55
2024-02-14T06:36:01.272Z,55
2024-02-14T06:37:01.457Z,55
2024-02-14T06:38:04.740Z,55
2024-02-14T06:39:00.847Z,54
2024-02-14T06:40:01.184Z,54
2024-02-14T06:41:01.302Z,54
2024-02-14T06:43:02.119Z,54
2024-02-14T06:44:01.281Z,54
2024-02-14T06:45:01.578Z,54
2024-02-14T06:46:01.656Z,54
2024-02-14T06:47:01.818Z,54
2024-02-14T06:48:01.072Z,54
2024-02-14T06:49:01.844Z,53
2024-02-14T06:50:01.013Z,53
2024-02-14T06:51:01.153Z,53
2024-02-14T06:52:01.571Z,53
2024-02-14T06:53:02.083Z,53
2024-02-14T06:54:01.467Z,53
2024-02-14T06:55:01.622Z,53
2024-02-14T06:56:00.969Z,53
2024-02-14T06:57:01.052Z,53
2024-02-14T06:58:01.458Z,53
2024-02-14T06:59:01.582Z,53
2024-02-14T07:00:01.035Z,53
2024-02-14T07:01:01.268Z,53
2024-02-14T07:02:12.762Z,53
2024-02-14T07:04:01.388Z,53
2024-02-14T07:05:01.814Z,53
2024-02-14T07:06:01.283Z,53
2024-02-14T07:07:01.124Z,53
2024-02-14T07:08:01.283Z,53
2024-02-14T07:09:01.446Z,53
2024-02-14T07:10:00.905Z,53
2024-02-14T07:11:00.969Z,53
2024-02-14T07:12:01.286Z,53
2024-02-14T07:13:01.427Z,53
2024-02-14T07:14:01.512Z,53
2024-02-14T07:15:01.669Z,53
2024-02-14T07:16:00.935Z,53
2024-02-14T07:17:01.119Z,53
2024-02-14T07:18:01.176Z,53
2024-02-14T07:19:01.535Z,53
2024-02-14T07:20:01.783Z,53
2024-02-14T07:21:01.307Z,53
2024-02-14T07:22:01.641Z,53
2024-02-14T07:23:01.046Z,53
2024-02-14T07:24:01.999Z,53
2024-02-14T07:25:01.135Z,53
2024-02-14T07:26:01.187Z,53
2024-02-14T07:27:01.233Z,53
2024-02-14T07:28:01.308Z,53
2024-02-14T07:29:01.507Z,53
2024-02-14T07:30:01.876Z,52
2024-02-14T07:31:01.244Z,52
2024-02-14T07:32:01.298Z,53
2024-02-14T07:33:01.474Z,53
2024-02-14T07:34:01.708Z,53
2024-02-14T07:35:01.298Z,53
2024-02-14T07:36:01.552Z,53
2024-02-14T07:37:01.600Z,53
2024-02-14T07:38:01.667Z,53
2024-02-14T07:39:01.734Z,53
2024-02-14T07:40:00.880Z,53
2024-02-14T07:41:01.195Z,53
2024-02-14T07:42:01.338Z,53
2024-02-14T07:43:01.377Z,53
2024-02-14T07:44:01.419Z,53
2024-02-14T07:45:01.723Z,53
2024-02-14T07:46:01.101Z,53
2024-02-14T07:47:03.346Z,53
2024-02-14T07:48:01.788Z,53
2024-02-14T07:49:01.071Z,53
2024-02-14T07:50:01.456Z,53
2024-02-14T07:51:01.629Z,53
2024-02-14T07:52:01.713Z,53
2024-02-14T07:53:00.821Z,53
2024-02-14T07:54:01.001Z,53
2024-02-14T07:55:01.099Z,53
2024-02-14T07:56:01.255Z,53
2024-02-14T07:57:01.362Z,53
2024-02-14T07:58:01.600Z,53
2024-02-14T07:59:01.782Z,53
2024-02-14T08:00:01.015Z,53
2024-02-14T08:01:01.350Z,53
2024-02-14T08:02:01.461Z,53
2024-02-14T08:03:01.760Z,53
2024-02-14T08:04:00.859Z,53
2024-02-14T08:05:01.220Z,53
2024-02-14T08:06:01.341Z,53
2024-02-14T08:07:01.512Z,53
2024-02-14T08:08:01.737Z,53
2024-02-14T08:09:01.813Z,53
2024-02-14T08:10:00.895Z,53
2024-02-14T08:11:00.946Z,53
2024-02-14T08:12:01.026Z,53
2024-02-14T08:13:01.095Z,54
2024-02-14T08:14:01.159Z,53
2024-02-14T08:15:01.318Z,53
2024-02-14T08:16:01.389Z,53
2024-02-14T08:17:01.479Z,53
2024-02-14T08:18:03.919Z,53
2024-02-14T08:20:01.143Z,53
2024-02-14T08:21:01.597Z,53
2024-02-14T08:22:00.856Z,52
2024-02-14T08:23:00.962Z,52
2024-02-14T08:24:02.171Z,52
2024-02-14T08:25:01.490Z,52
2024-02-14T08:26:01.717Z,52
2024-02-14T08:27:01.048Z,52
2024-02-14T08:28:01.169Z,52
2024-02-14T08:29:01.423Z,51
2024-02-14T08:30:01.665Z,51
2024-02-14T08:31:01.778Z,51
2024-02-14T08:32:01.863Z,51
2024-02-14T08:33:02.160Z,51
2024-02-14T08:34:02.496Z,51
2024-02-14T08:35:01.802Z,51
2024-02-14T08:36:02.329Z,51
2024-02-14T08:37:01.418Z,51
2024-02-14T08:38:01.437Z,51
2024-02-14T08:39:01.619Z,51
2024-02-14T08:40:01.717Z,51
2024-02-14T08:41:01.793Z,51
2024-02-14T08:42:00.869Z,51
2024-02-14T08:43:00.977Z,51
2024-02-14T08:44:01.379Z,51
2024-02-14T08:45:01.542Z,51
2024-02-14T08:46:01.668Z,51
2024-02-14T08:47:01.746Z,51
2024-02-14T08:48:01.222Z,51
2024-02-14T08:49:01.582Z,51
2024-02-14T08:50:01.896Z,51
2024-02-14T08:51:01.074Z,51
2024-02-14T08:52:01.200Z,51
2024-02-14T08:53:01.426Z,51
2024-02-14T08:54:01.573Z,51
2024-02-14T08:55:01.700Z,51
2024-02-14T08:56:01.782Z,51
2024-02-14T08:57:00.970Z,51
2024-02-14T08:58:01.057Z,51
2024-02-14T08:59:01.120Z,51
2024-02-14T09:00:01.584Z,51
2024-02-14T09:01:09.208Z,51
2024-02-14T09:03:01.830Z,51
2024-02-14T09:04:00.956Z,51
2024-02-14T09:05:01.378Z,51
2024-02-14T09:06:01.577Z,51
2024-02-14T09:07:01.717Z,51
2024-02-14T09:08:01.821Z,51
2024-02-14T09:09:00.915Z,51
2024-02-14T09:10:01.062Z,51
2024-02-14T09:11:01.098Z,51
2024-02-14T09:12:01.121Z,51
2024-02-14T09:13:01.465Z,51
2024-02-14T09:14:01.582Z,51
2024-02-14T09:15:01.685Z,51
2024-02-14T09:16:01.701Z,51
2024-02-14T09:17:01.866Z,51
2024-02-14T09:18:01.195Z,51
2024-02-14T09:19:01.307Z,51
2024-02-14T09:20:01.484Z,51
2024-02-14T09:21:01.809Z,51
2024-02-14T09:22:01.047Z,51
2024-02-14T09:23:01.156Z,51
2024-02-14T09:24:01.260Z,51
2024-02-14T09:25:01.358Z,51
2024-02-14T09:26:01.417Z,51
2024-02-14T09:27:01.559Z,51
2024-02-14T09:28:01.602Z,51
2024-02-14T09:29:01.663Z,51
2024-02-14T09:30:01.854Z,51
2024-02-14T09:31:01.391Z,51
2024-02-14T09:32:01.419Z,51
2024-02-14T09:33:01.753Z,51
2024-02-14T09:34:00.992Z,51
2024-02-14T09:35:01.298Z,51
2024-02-14T09:36:01.488Z,51
2024-02-14T09:37:01.535Z,51
2024-02-14T09:38:01.546Z,51
2024-02-14T09:39:02.415Z,51
2024-02-14T09:40:01.768Z,51
2024-02-14T09:41:00.797Z,51
2024-02-14T09:42:00.906Z,51
2024-02-14T09:43:01.027Z,51
2024-02-14T09:44:01.122Z,51
2024-02-14T09:45:01.270Z,51
2024-02-14T09:46:01.388Z,51
2024-02-14T09:47:01.433Z,50
2024-02-14T09:48:01.596Z,51
2024-02-14T09:49:01.955Z,50
2024-02-14T09:50:01.478Z,50
2024-02-14T09:51:01.579Z,50
2024-02-14T09:52:00.935Z,50
2024-02-14T09:53:01.072Z,50
2024-02-14T09:54:01.248Z,50
2024-02-14T09:55:01.413Z,50
2024-02-14T09:56:01.476Z,50
2024-02-14T09:57:01.780Z,50
2024-02-14T09:58:00.851Z,50
2024-02-14T09:59:01.008Z,50
2024-02-14T10:00:01.640Z,50
2024-02-14T10:01:00.944Z,50
2024-02-14T10:02:01.017Z,50
2024-02-14T10:03:01.238Z,49
2024-02-14T10:04:01.317Z,51
2024-02-14T10:05:01.674Z,51
2024-02-14T10:06:00.976Z,51
2024-02-14T10:07:01.100Z,51
2024-02-14T10:08:01.155Z,51
2024-02-14T10:09:04.252Z,51
2024-02-14T10:10:01.531Z,51
2024-02-14T10:11:01.289Z,51
2024-02-14T10:12:01.433Z,51
2024-02-14T10:13:01.506Z,51
2024-02-14T10:14:01.720Z,51
2024-02-14T10:15:00.921Z,51
2024-02-14T10:16:00.973Z,51
2024-02-14T10:17:01.448Z,51
2024-02-14T10:18:01.667Z,51
2024-02-14T10:19:01.464Z,51
2024-02-14T10:20:01.844Z,51
2024-02-14T10:21:01.271Z,51
2024-02-14T10:22:01.405Z,51
2024-02-14T10:23:01.455Z,50
2024-02-14T10:24:01.982Z,50
2024-02-14T10:25:01.252Z,50
2024-02-14T10:26:01.284Z,50
2024-02-14T10:27:01.311Z,52
2024-02-14T10:28:01.395Z,52
2024-02-14T10:29:01.634Z,52
2024-02-14T10:30:01.031Z,52
2024-02-14T10:31:01.206Z,51
2024-02-14T10:32:01.335Z,51
2024-02-14T10:33:09.832Z,51
2024-02-14T10:35:01.077Z,51
2024-02-14T10:36:03.111Z,51
2024-02-14T10:37:01.478Z,51
2024-02-14T10:38:01.651Z,51
2024-02-14T10:39:01.048Z,51
2024-02-14T10:40:01.185Z,51
2024-02-14T10:41:01.402Z,51
2024-02-14T10:42:01.557Z,51
2024-02-14T10:43:01.634Z,51
2024-02-14T10:44:01.745Z,51
2024-02-14T10:45:01.039Z,51
2024-02-14T10:46:01.868Z,51
2024-02-14T10:47:00.998Z,51
2024-02-14T10:48:01.205Z,51
2024-02-14T10:49:01.537Z,51
2024-02-14T10:50:01.366Z,51
2024-02-14T10:51:01.545Z,51
2024-02-14T10:52:01.768Z,51
2024-02-14T10:53:01.800Z,51
2024-02-14T10:54:01.301Z,51
2024-02-14T10:55:01.396Z,51
2024-02-14T10:56:01.580Z,51
2024-02-14T10:57:01.094Z,51
2024-02-14T10:58:01.432Z,51
2024-02-14T10:59:01.518Z,51
2024-02-14T11:00:01.696Z,51
2024-02-14T11:01:02.059Z,51
2024-02-14T11:02:01.250Z,51
2024-02-14T11:03:01.647Z,51
2024-02-14T11:04:01.767Z,51
2024-02-14T11:05:00.898Z,51
2024-02-14T11:06:01.205Z,51
2024-02-14T11:07:01.357Z,51
2024-02-14T11:08:01.545Z,51
2024-02-14T11:09:01.677Z,51
2024-02-14T11:10:01.220Z,51
2024-02-14T11:11:01.317Z,51
2024-02-14T11:12:01.509Z,51
2024-02-14T11:13:01.594Z,51
2024-02-14T11:14:00.847Z,51
2024-02-14T11:15:03.772Z,51
2024-02-14T11:16:01.460Z,51
2024-02-14T11:17:01.590Z,51
2024-02-14T11:18:01.810Z,51
2024-02-14T11:19:01.005Z,51
2024-02-14T11:20:01.639Z,51
2024-02-14T11:21:01.983Z,51
2024-02-14T11:22:01.090Z,51
2024-02-14T11:23:01.202Z,51
2024-02-14T11:24:01.272Z,51
2024-02-14T11:25:01.553Z,51
2024-02-14T11:26:01.646Z,51
2024-02-14T11:27:01.743Z,51
2024-02-14T11:28:00.838Z,51
2024-02-14T11:29:00.994Z,51
2024-02-14T11:30:01.654Z,51
2024-02-14T11:31:00.898Z,51
2024-02-14T11:32:01.215Z,51
2024-02-14T11:33:01.426Z,51
2024-02-14T11:34:01.657Z,51
2024-02-14T11:35:01.071Z,51
2024-02-14T11:36:01.185Z,51
2024-02-14T11:37:01.293Z,51
2024-02-14T11:38:01.306Z,51
2024-02-14T11:39:01.406Z,51
2024-02-14T11:40:01.514Z,51
2024-02-14T11:41:01.608Z,51
2024-02-14T11:42:00.972Z,51
2024-02-14T11:43:01.013Z,51
2024-02-14T11:44:01.361Z,51
2024-02-14T11:45:01.594Z,51
2024-02-14T11:46:01.707Z,51
2024-02-14T11:47:01.786Z,51
2024-02-14T11:48:01.066Z,51
2024-02-14T11:49:01.491Z,51
2024-02-14T11:50:01.742Z,51
2024-02-14T11:51:00.947Z,52
2024-02-14T11:52:01.055Z,51
2024-02-14T11:53:01.100Z,51
2024-02-14T11:54:01.164Z,52
2024-02-14T11:55:01.353Z,52
2024-02-14T11:56:01.385Z,52
2024-02-14T11:57:01.069Z,52
2024-02-14T11:58:01.129Z,51
2024-02-14T11:59:01.211Z,52
2024-02-14T12:00:01.388Z,52
2024-02-14T12:01:01.688Z,52
2024-02-14T12:02:01.775Z,52
2024-02-14T12:03:01.896Z,52
2024-02-14T12:04:01.125Z,52
2024-02-14T12:05:01.327Z,52
2024-02-14T12:06:01.539Z,52
2024-02-14T12:07:01.825Z,52
2024-02-14T12:08:00.946Z,52
2024-02-14T12:09:01.334Z,52
2024-02-14T12:10:01.474Z,52
2024-02-14T12:11:01.596Z,52
2024-02-14T12:12:01.684Z,52
2024-02-14T12:13:01.750Z,52
2024-02-14T12:14:01.361Z,52
2024-02-14T12:15:01.607Z,52
2024-02-14T12:16:01.735Z,52
2024-02-14T12:17:01.758Z,52
2024-02-14T12:18:01.469Z,52
2024-02-14T12:19:01.676Z,52
2024-02-14T12:20:01.885Z,52
2024-02-14T12:21:01.029Z,52
2024-02-14T12:22:01.087Z,52
2024-02-14T12:23:01.481Z,52
2024-02-14T12:24:01.530Z,52
2024-02-14T12:25:01.648Z,52
2024-02-14T12:26:01.723Z,52
2024-02-14T12:27:01.829Z,52
2024-02-14T12:28:00.904Z,52
2024-02-14T12:29:01.037Z,52
2024-02-14T12:30:01.146Z,52
2024-02-14T12:31:01.329Z,52
2024-02-14T12:32:01.373Z,52
2024-02-14T12:33:01.664Z,52
2024-02-14T12:34:01.815Z,52
2024-02-14T12:35:01.109Z,52
2024-02-14T12:36:01.316Z,52
2024-02-14T12:37:01.374Z,53
2024-02-14T12:38:01.385Z,52
2024-02-14T12:39:01.476Z,53
2024-02-14T12:40:01.791Z,53
2024-02-14T12:41:01.061Z,53
2024-02-14T12:42:01.205Z,52
2024-02-14T12:43:01.319Z,52
2024-02-14T12:44:01.662Z,53
2024-02-14T12:45:00.985Z,53
2024-02-14T12:46:01.057Z,53
2024-02-14T12:47:01.217Z,53
2024-02-14T12:48:01.354Z,53
2024-02-14T12:49:01.728Z,53
2024-02-14T12:50:01.241Z,53
2024-02-14T12:51:01.416Z,53
2024-02-14T12:52:01.525Z,53
2024-02-14T12:53:01.583Z,53
2024-02-14T12:54:01.720Z,53
2024-02-14T12:55:01.831Z,53
2024-02-14T12:56:00.899Z,53
2024-02-14T12:57:01.055Z,53
2024-02-14T12:58:06.226Z,53
2024-02-14T12:59:01.275Z,53
2024-02-14T13:00:01.475Z,53
2024-02-14T13:01:01.729Z,53
2024-02-14T13:02:00.996Z,53
2024-02-14T13:03:01.197Z,53
2024-02-14T13:04:01.522Z,53
2024-02-14T13:05:01.732Z,53
2024-02-14T13:06:01.850Z,53
2024-02-14T13:07:01.049Z,53
2024-02-14T13:08:01.176Z,53
2024-02-14T13:09:01.371Z,53
2024-02-14T13:10:01.520Z,53
2024-02-14T13:11:01.589Z,53
2024-02-14T13:12:01.725Z,53
2024-02-14T13:13:01.928Z,53
2024-02-14T13:14:01.035Z,53
2024-02-14T13:15:01.140Z,53
2024-02-14T13:16:01.384Z,53
2024-02-14T13:17:01.695Z,53
2024-02-14T13:18:01.194Z,53
2024-02-14T13:19:01.838Z,53
2024-02-14T13:20:01.428Z,53
2024-02-14T13:21:02.100Z,53
2024-02-14T13:22:01.387Z,53
2024-02-14T13:23:01.532Z,53
2024-02-14T13:24:01.698Z,53
2024-02-14T13:25:01.919Z,53
2024-02-14T13:26:01.073Z,53
2024-02-14T13:27:01.301Z,53
2024-02-14T13:28:01.491Z,53
2024-02-14T13:29:01.599Z,53
2024-02-14T13:30:01.803Z,53
2024-02-14T13:31:00.919Z,53
2024-02-14T13:32:01.185Z,53
2024-02-14T13:33:01.419Z,53
2024-02-14T13:34:02.034Z,53
2024-02-14T13:35:01.408Z,53
2024-02-14T13:36:01.595Z,53
2024-02-14T13:37:01.822Z,53
2024-02-14T13:38:01.016Z,53
2024-02-14T13:39:01.234Z,53
2024-02-14T13:40:01.395Z,53
2024-02-14T13:41:01.705Z,54
2024-02-14T13:42:01.858Z,54
2024-02-14T13:43:01.367Z,54
2024-02-14T13:44:01.424Z,54
2024-02-14T13:45:01.757Z,54
2024-02-14T13:46:00.857Z,54
2024-02-14T13:47:00.929Z,54
2024-02-14T13:48:01.119Z,54
2024-02-14T13:49:01.661Z,54
2024-02-14T13:50:01.938Z,54
2024-02-14T13:51:01.303Z,54
2024-02-14T13:52:01.391Z,54
2024-02-14T13:53:01.520Z,54
2024-02-14T13:54:01.670Z,54
2024-02-14T13:55:01.870Z,54
2024-02-14T13:56:01.091Z,54
2024-02-14T13:57:01.504Z,54
2024-02-14T13:58:01.616Z,54
2024-02-14T13:59:01.709Z,54
2024-02-14T14:00:01.285Z,54
2024-02-14T14:01:01.566Z,54
2024-02-14T14:02:01.859Z,54
2024-02-14T14:03:00.950Z,54
2024-02-14T14:04:01.009Z,54
2024-02-14T14:05:01.217Z,54
2024-02-14T14:06:01.756Z,54
2024-02-14T14:07:01.460Z,54
2024-02-14T14:08:01.839Z,54
2024-02-14T14:09:01.033Z,54
2024-02-14T14:10:01.313Z,54
2024-02-14T14:11:01.327Z,54
2024-02-14T14:12:01.394Z,55
2024-02-14T14:13:01.556Z,55
2024-02-14T14:14:01.604Z,55
2024-02-14T14:15:01.133Z,54
2024-02-14T14:16:01.247Z,54
2024-02-14T14:17:01.410Z,55
2024-02-14T14:18:01.557Z,55
2024-02-14T14:19:02.216Z,55
2024-02-14T14:20:01.587Z,55
2024-02-14T14:21:00.982Z,55
2024-02-14T14:22:01.070Z,55
2024-02-14T14:23:01.093Z,55
2024-02-14T14:24:01.422Z,55
2024-02-14T14:25:01.465Z,55
2024-02-14T14:26:01.671Z,55
2024-02-14T14:27:01.193Z,55
2024-02-14T14:28:01.270Z,55
2024-02-14T14:29:01.282Z,55
2024-02-14T14:30:01.618Z,55
2024-02-14T14:31:01.166Z,55
2024-02-14T14:32:01.247Z,55
2024-02-14T14:33:01.535Z,55